Time;durP1;ratioP1;P1;durP2;ratioP2;P2;SDS_P1;SDS_P2;PMS_P1;PMS_P2;Temp;Humidity;BMP_temperature;BMP_pressure;BME280_temperature;BME280_humidity;BME280_pressure;Samples;Min_cycle;Max_cycle;Signal;HPM_P1;HPM_P2
2022/10/11 00:07:03;;;;;;;15.38;6.95;;;19.10;73.20;;;;;;21164670;28;20086;-61
2022/10/11 00:17:06;;;;;;;10.27;6.32;;;18.90;73.60;;;;;;21165436;28;20056;-60
2022/10/11 00:27:08;;;;;;;15.10;7.47;;;18.90;74.10;;;;;;21145342;28;20193;-61
2022/10/11 00:37:10;;;;;;;12.63;7.50;;;18.80;74.60;;;;;;21162990;28;20131;-60
2022/10/11 00:47:16;;;;;;;14.55;6.63;;;18.70;74.80;;;;;;21162205;28;20117;-59
2022/10/11 00:57:21;;;;;;;12.98;7.20;;;18.70;74.90;;;;;;21162790;28;20109;-60
2022/10/11 01:07:26;;;;;;;15.05;7.18;;;18.70;75.20;;;;;;21161859;28;20091;-62
2022/10/11 01:17:51;;;;;;;12.55;6.95;;;18.70;75.40;;;;;;21161868;28;20150;-61
2022/10/11 01:28:25;;;;;;;12.00;6.15;;;18.70;75.00;;;;;;21161804;28;20055;-61
2022/10/11 01:38:35;;;;;;;12.80;6.40;;;18.60;75.40;;;;;;21138567;28;20096;-60
2022/10/11 01:48:49;;;;;;;14.40;6.25;;;18.60;75.50;;;;;;21160068;28;20133;-60
2022/10/11 01:58:52;;;;;;;9.70;5.35;;;18.60;75.30;;;;;;21173465;28;20058;-60
2022/10/11 02:09:05;;;;;;;13.48;5.00;;;18.60;75.30;;;;;;21174160;28;20062;-59
2022/10/11 02:19:07;;;;;;;14.87;6.10;;;18.40;75.00;;;;;;21173495;28;20056;-59
2022/10/11 02:29:13;;;;;;;11.98;5.97;;;18.40;75.10;;;;;;21173076;28;20044;-59
2022/10/11 02:39:22;;;;;;;10.98;7.32;;;18.40;75.00;;;;;;21171582;28;20130;-59
2022/10/11 02:49:27;;;;;;;9.98;6.80;;;18.50;74.20;;;;;;21170988;28;20062;-61
2022/10/11 02:59:31;;;;;;;10.32;5.90;;;18.50;72.90;;;;;;21171086;28;20044;-59
2022/10/11 03:09:32;;;;;;;8.25;5.88;;;18.40;72.70;;;;;;21170320;28;20049;-59
2022/10/11 03:19:34;;;;;;;10.90;5.93;;;18.50;72.60;;;;;;21168629;28;20088;-60
2022/10/11 03:29:36;;;;;;;9.82;5.05;;;18.40;73.00;;;;;;21168918;28;20043;-60
2022/10/11 03:39:39;;;;;;;14.48;5.47;;;18.40;73.10;;;;;;21167360;28;20139;-59
2022/10/11 03:49:42;;;;;;;12.70;5.63;;;18.30;73.20;;;;;;21166113;28;20469;-61
2022/10/11 03:59:45;;;;;;;10.00;5.15;;;18.30;73.20;;;;;;21166548;28;20055;-59
2022/10/11 04:09:47;;;;;;;9.50;4.93;;;18.30;73.20;;;;;;21164919;28;20385;-60
2022/10/11 04:19:49;;;;;;;10.30;4.95;;;18.20;73.30;;;;;;21164961;28;20116;-61
2022/10/11 04:29:51;;;;;;;9.93;5.78;;;18.30;73.00;;;;;;21164166;28;20100;-60
2022/10/11 04:39:53;;;;;;;12.10;6.25;;;18.20;73.10;;;;;;21163820;28;20139;-60
2022/10/11 04:49:55;;;;;;;10.25;5.57;;;18.20;72.90;;;;;;21162144;28;20052;-59
2022/10/11 04:59:57;;;;;;;10.38;5.35;;;18.20;72.40;;;;;;21161854;28;20053;-60
2022/10/11 05:09:59;;;;;;;8.27;4.50;;;18.20;72.50;;;;;;21161653;28;20177;-61
2022/10/11 05:20:01;;;;;;;7.03;4.40;;;18.20;72.10;;;;;;21160915;28;20048;-59
2022/10/11 05:30:04;;;;;;;12.30;5.13;;;18.20;71.90;;;;;;21169997;28;20074;-61
2022/10/11 05:40:06;;;;;;;9.15;4.35;;;18.20;71.70;;;;;;21176523;28;20052;-60
2022/10/11 05:50:08;;;;;;;9.88;4.15;;;18.20;71.30;;;;;;21175909;28;20131;-61
2022/10/11 06:00:10;;;;;;;13.85;4.28;;;18.20;71.30;;;;;;21175604;28;20055;-60
2022/10/11 06:10:12;;;;;;;9.10;4.70;;;18.20;70.90;;;;;;21174617;28;20047;-60
2022/10/11 06:20:13;;;;;;;10.52;4.70;;;18.20;71.00;;;;;;21174166;28;20051;-60
2022/10/11 06:30:14;;;;;;;11.35;5.70;;;18.10;71.10;;;;;;21173754;28;20051;-60
2022/10/11 06:40:16;;;;;;;15.40;6.80;;;18.20;71.00;;;;;;21173220;28;20403;-62
2022/10/11 06:50:18;;;;;;;9.10;5.22;;;18.10;71.20;;;;;;21171536;28;20138;-60
2022/10/11 07:00:19;;;;;;;8.95;5.32;;;18.10;71.10;;;;;;21172227;28;20047;-61
2022/10/11 07:10:21;;;;;;;17.25;5.55;;;18.10;71.30;;;;;;21169456;28;20445;-59
2022/10/11 07:20:23;;;;;;;12.75;5.57;;;18.10;71.20;;;;;;21168874;28;20138;-60
2022/10/11 07:30:25;;;;;;;11.23;5.88;;;18.20;71.10;;;;;;21168552;28;20048;-60
2022/10/11 07:40:27;;;;;;;15.35;6.75;;;18.10;72.90;;;;;;21166884;28;20051;-59
2022/10/11 07:50:28;;;;;;;16.13;5.55;;;18.10;74.40;;;;;;21165286;28;20064;-60
2022/10/11 08:00:30;;;;;;;10.02;5.72;;;18.10;73.90;;;;;;21165969;28;20052;-59
2022/10/11 08:10:37;;;;;;;14.40;6.53;;;18.20;73.40;;;;;;21165748;28;20044;-60
2022/10/11 08:20:39;;;;;;;16.23;7.63;;;18.40;72.80;;;;;;21164176;28;20058;-61
2022/10/11 08:30:53;;;;;;;9.60;6.07;;;18.50;72.50;;;;;;21163721;28;20079;-60
2022/10/11 08:40:57;;;;;;;10.35;6.50;;;18.70;71.10;;;;;;21163489;28;20052;-61
2022/10/11 08:51:01;;;;;;;10.38;5.93;;;18.70;70.20;;;;;;21162652;28;20062;-61
2022/10/11 09:01:10;;;;;;;8.73;5.20;;;18.90;69.80;;;;;;21166732;28;20048;-61
2022/10/11 09:11:30;;;;;;;15.60;6.70;;;19.10;68.80;;;;;;21179380;28;20411;-62
2022/10/11 09:21:42;;;;;;;13.70;5.32;;;19.20;67.90;;;;;;21178663;28;20065;-62
2022/10/11 09:31:48;;;;;;;13.60;6.00;;;19.40;67.20;;;;;;21176948;28;20051;-61
2022/10/11 09:42:05;;;;;;;12.35;6.32;;;19.60;66.60;;;;;;21158585;28;20059;-60
2022/10/11 09:52:16;;;;;;;18.45;7.15;;;19.80;65.50;;;;;;21175616;28;20054;-60
2022/10/11 10:02:21;;;;;;;11.93;6.10;;;19.80;65.40;;;;;;21174787;28;20488;-60
2022/10/11 10:12:29;;;;;;;16.90;6.97;;;19.90;65.00;;;;;;21172832;28;20186;-61
2022/10/11 10:22:34;;;;;;;14.30;7.25;;;20.20;64.80;;;;;;21173576;28;20047;-60
2022/10/11 10:32:44;;;;;;;17.00;7.40;;;20.20;63.50;;;;;;21172681;28;20117;-60
2022/10/11 10:42:46;;;;;;;17.45;7.53;;;20.40;63.30;;;;;;21163806;28;20063;-60
2022/10/11 10:53:19;;;;;;;15.40;7.43;;;20.70;62.20;;;;;;21088596;28;20179;-60
2022/10/11 11:03:38;;;;;;;19.00;8.68;;;20.90;61.10;;;;;;21085340;28;20044;-58
2022/10/11 11:13:55;;;;;;;15.13;7.90;;;21.10;60.90;;;;;;21083834;28;20083;-62
2022/10/11 11:23:56;;;;;;;15.07;7.63;;;21.20;60.10;;;;;;21082899;28;20051;-60
2022/10/11 11:34:10;;;;;;;15.18;7.43;;;21.60;59.00;;;;;;21080824;28;20051;-59
2022/10/11 11:44:18;;;;;;;13.75;8.30;;;21.70;57.90;;;;;;21062983;28;20045;-58
2022/10/11 11:54:40;;;;;;;24.10;8.98;;;21.90;56.70;;;;;;21062624;28;20534;-58
2022/10/11 12:04:44;;;;;;;13.15;7.47;;;22.30;56.90;;;;;;21080337;28;20079;-59
2022/10/11 12:14:46;;;;;;;15.43;7.00;;;22.10;56.30;;;;;;21079731;28;20048;-61
2022/10/11 12:24:58;;;;;;;11.13;6.93;;;21.80;56.60;;;;;;21079378;28;20404;-60
2022/10/11 12:35:31;;;;;;;14.67;6.77;;;21.60;56.20;;;;;;21078904;28;20369;-61
2022/10/11 12:45:33;;;;;;;11.90;5.67;;;21.70;56.50;;;;;;21079118;28;20060;-61
2022/10/11 12:55:58;;;;;;;15.10;5.33;;;22.00;53.50;;;;;;21079210;28;20319;-60
2022/10/11 13:06:19;;;;;;;12.60;5.70;;;22.40;50.00;;;;;;21077475;28;20044;-60
2022/10/11 13:16:28;;;;;;;8.13;4.65;;;22.50;50.10;;;;;;21078007;28;20044;-62
2022/10/11 13:26:30;;;;;;;13.15;5.63;;;22.70;50.60;;;;;;21076942;28;20040;-60
2022/10/11 13:36:32;;;;;;;;;;;22.90;50.20;;;;;;21077268;28;20052;-60
2022/10/11 13:46:36;;;;;;;16.83;5.15;;;23.10;50.10;;;;;;21077817;28;19924;-61
2022/10/11 13:56:48;;;;;;;11.30;4.72;;;23.10;49.60;;;;;;21092357;28;20404;-61
2022/10/11 14:06:56;;;;;;;6.68;4.63;;;23.30;48.10;;;;;;21090147;28;20130;-59
2022/10/11 14:17:09;;;;;;;15.65;5.72;;;23.40;48.00;;;;;;21091369;28;20052;-58
2022/10/11 14:27:18;;;;;;;12.07;4.20;;;23.30;47.90;;;;;;21088838;28;20048;-62
2022/10/11 14:37:21;;;;;;;8.63;3.38;;;23.40;49.30;;;;;;21084018;28;20051;-63
2022/10/11 14:47:22;;;;;;;8.35;3.63;;;23.40;50.00;;;;;;21084165;28;20059;-61
2022/10/11 14:57:25;;;;;;;10.18;4.30;;;23.50;50.60;;;;;;21083899;28;20067;-67
2022/10/11 15:07:26;;;;;;;7.95;3.60;;;23.50;51.40;;;;;;21082269;28;20048;-61
2022/10/11 15:17:27;;;;;;;10.77;4.50;;;23.30;51.20;;;;;;21083480;28;20047;-61
2022/10/11 15:27:29;;;;;;;11.88;4.40;;;23.20;52.10;;;;;;21062845;28;20052;-62
2022/10/11 15:37:30;;;;;;;10.25;3.78;;;23.10;52.30;;;;;;21081201;28;20465;-71
2022/10/11 15:47:31;;;;;;;8.77;3.70;;;23.00;52.60;;;;;;21078188;28;20063;-60
2022/10/11 15:57:33;;;;;;;8.75;3.28;;;23.00;52.70;;;;;;21075004;28;20503;-62
2022/10/11 16:07:34;;;;;;;7.15;2.92;;;23.00;51.70;;;;;;21074592;28;20048;-67
2022/10/11 16:17:36;;;;;;;9.38;3.50;;;23.00;51.80;;;;;;21074721;28;20423;-61
2022/10/11 16:27:37;;;;;;;14.00;4.10;;;23.00;51.40;;;;;;21075917;28;20051;-62
2022/10/11 16:37:39;;;;;;;15.38;3.80;;;22.70;53.50;;;;;;21074902;28;20070;-61
2022/10/11 16:47:41;;;;;;;8.75;3.50;;;22.70;53.60;;;;;;21075631;28;20048;-60
2022/10/11 16:57:43;;;;;;;8.75;3.72;;;22.70;53.10;;;;;;21076782;28;20055;-61
2022/10/11 17:07:44;;;;;;;10.25;4.63;;;22.70;52.40;;;;;;21076047;28;20059;-65
2022/10/11 17:17:45;;;;;;;14.63;3.67;;;22.40;53.30;;;;;;21076870;28;20066;-61
2022/10/11 17:27:47;;;;;;;9.48;3.17;;;22.00;54.20;;;;;;21086777;28;20044;-59
2022/10/11 17:37:51;;;;;;;8.23;4.18;;;21.70;56.30;;;;;;21089128;28;20052;-66
2022/10/11 17:47:53;;;;;;;12.88;4.22;;;21.40;58.20;;;;;;21090138;28;20052;-59
2022/10/11 17:57:55;;;;;;;9.23;4.32;;;21.40;58.80;;;;;;21089146;28;20131;-63
2022/10/11 18:07:58;;;;;;;8.63;3.80;;;21.30;58.90;;;;;;21089696;28;20125;-66
2022/10/11 18:17:59;;;;;;;16.13;5.03;;;21.30;59.20;;;;;;21088235;28;20048;-57
2022/10/11 18:28:01;;;;;;;28.05;17.35;;;21.70;57.00;;;;;;21071798;28;20412;-58
2022/10/11 18:38:03;;;;;;;18.73;7.05;;;21.60;56.50;;;;;;21087382;28;20059;-59
2022/10/11 18:48:07;;;;;;;13.07;5.17;;;21.40;56.50;;;;;;21087554;28;20052;-59
2022/10/11 18:58:09;;;;;;;16.63;6.80;;;21.30;57.00;;;;;;21086834;28;20044;-60
2022/10/11 19:08:11;;;;;;;15.15;5.00;;;21.20;57.90;;;;;;21086831;28;20134;-61
2022/10/11 19:18:13;;;;;;;21.60;5.32;;;21.10;58.80;;;;;;21085349;28;20059;-59
2022/10/11 19:28:15;;;;;;;9.32;4.63;;;21.10;59.30;;;;;;21066135;28;20062;-59
2022/10/11 19:38:17;;;;;;;16.02;7.28;;;21.10;60.10;;;;;;21084729;28;20055;-59
2022/10/11 19:48:19;;;;;;;12.63;6.67;;;20.90;61.40;;;;;;21081759;28;20052;-57
2022/10/11 19:58:21;;;;;;;17.65;6.57;;;20.80;62.20;;;;;;21082456;28;20361;-60
2022/10/11 20:08:22;;;;;;;13.32;5.75;;;20.70;62.60;;;;;;21082824;28;20126;-65
2022/10/11 20:18:25;;;;;;;14.43;8.25;;;20.70;62.90;;;;;;21061910;28;20392;-63
2022/10/11 20:28:29;;;;;;;19.87;6.50;;;20.70;62.80;;;;;;21080546;28;20075;-58
2022/10/11 20:38:32;;;;;;;10.38;4.78;;;20.60;62.00;;;;;;21080354;28;20380;-59
2022/10/11 20:48:35;;;;;;;9.02;3.08;;;20.40;62.10;;;;;;21061111;28;20056;-62
2022/10/11 20:58:38;;;;;;;5.03;3.13;;;20.20;61.90;;;;;;21089519;28;20091;-63
2022/10/11 21:08:41;;;;;;;7.05;3.63;;;20.10;61.40;;;;;;21107115;28;20488;-66
2022/10/11 21:18:43;;;;;;;9.40;4.63;;;20.00;61.40;;;;;;21107091;28;20048;-65
2022/10/11 21:28:46;;;;;;;;;;;19.90;61.90;;;;;;21105411;28;20047;-65
2022/10/11 21:38:49;;;;;;;11.70;4.00;;;19.70;62.20;;;;;;21104660;28;19920;-60
2022/10/11 21:48:52;;;;;;;8.57;4.40;;;19.60;62.90;;;;;;21104570;28;20159;-65
2022/10/11 21:58:54;;;;;;;9.55;4.85;;;19.60;63.30;;;;;;21104542;28;20047;-61
2022/10/11 22:08:56;;;;;;;9.80;5.10;;;19.50;63.60;;;;;;21064836;28;20047;-57
2022/10/11 22:19:00;;;;;;;9.90;4.90;;;19.40;63.80;;;;;;21092612;28;20447;-68
2022/10/11 22:29:02;;;;;;;12.98;6.70;;;19.50;63.80;;;;;;21089770;28;20071;-65
2022/10/11 22:39:06;;;;;;;7.97;5.43;;;19.50;64.30;;;;;;21088773;28;20055;-62
2022/10/11 22:49:08;;;;;;;9.13;4.75;;;19.30;64.80;;;;;;21088998;28;20537;-60
2022/10/11 22:59:10;;;;;;;8.13;4.10;;;19.20;65.30;;;;;;21087249;28;20048;-61
2022/10/11 23:09:12;;;;;;;12.75;4.50;;;19.20;66.00;;;;;;21086069;28;20353;-57
2022/10/11 23:19:14;;;;;;;7.30;3.70;;;19.00;66.50;;;;;;21085145;28;20052;-58
2022/10/11 23:29:15;;;;;;;6.25;4.25;;;18.90;66.80;;;;;;21084411;28;20052;-57
2022/10/11 23:39:17;;;;;;;7.25;4.40;;;18.80;66.90;;;;;;21066256;28;20507;-56
2022/10/11 23:49:19;;;;;;;8.43;3.33;;;18.70;67.60;;;;;;21084374;28;20105;-65
2022/10/11 23:59:21;;;;;;;8.13;4.20;;;18.40;68.30;;;;;;21082558;28;20139;-59
